createdAt,value
2023-05-16T00:00:10.386Z,11.64
2023-05-16T00:02:44.289Z,11.53
2023-05-16T00:05:17.868Z,11.77
2023-05-16T00:07:51.158Z,11.46
2023-05-16T00:10:26.469Z,11.62
2023-05-16T00:13:02.139Z,11.64
2023-05-16T00:15:35.934Z,11.84
2023-05-16T00:18:10.063Z,11.44
2023-05-16T00:20:43.285Z,11.46
2023-05-16T00:23:17.215Z,11.74
2023-05-16T00:25:51.741Z,11.72
2023-05-16T00:28:25.118Z,11.30
2023-05-16T00:30:58.269Z,11.08
2023-05-16T00:33:31.344Z,11.06
2023-05-16T00:36:05.004Z,11.31
2023-05-16T00:38:38.358Z,11.47
2023-05-16T00:41:13.543Z,11.51
2023-05-16T00:43:47.048Z,11.43
2023-05-16T00:46:20.299Z,11.38
2023-05-16T00:48:53.867Z,11.36
2023-05-16T00:51:27.245Z,11.31
2023-05-16T00:54:00.764Z,11.37
2023-05-16T00:56:36.182Z,11.16
2023-05-16T00:59:09.427Z,11.26
2023-05-16T01:01:47.506Z,11.24
2023-05-16T01:04:21.815Z,10.90
2023-05-16T01:06:56.264Z,10.89
2023-05-16T01:09:29.848Z,10.85
2023-05-16T01:12:12.770Z,10.73
2023-05-16T01:14:53.587Z,10.82
2023-05-16T01:17:37.535Z,10.62
2023-05-16T01:20:17.804Z,10.70
2023-05-16T01:23:02.251Z,10.58
2023-05-16T01:25:47.651Z,10.14
2023-05-16T01:28:23.054Z,10.59
2023-05-16T01:30:56.881Z,10.63
2023-05-16T01:33:30.164Z,10.61
2023-05-16T01:36:13.534Z,10.48
2023-05-16T01:38:57.278Z,10.67
2023-05-16T01:41:44.851Z,10.55
2023-05-16T01:44:26.683Z,10.38
2023-05-16T01:47:03.102Z,10.42
2023-05-16T01:49:40.997Z,10.26
2023-05-16T01:52:18.963Z,10.46
2023-05-16T01:54:54.897Z,10.38
2023-05-16T01:57:30.521Z,10.30
2023-05-16T02:00:05.839Z,10.26
2023-05-16T02:02:48.208Z,10.14
2023-05-16T02:05:23.406Z,10.10
2023-05-16T02:07:56.897Z,10.05
2023-05-16T02:10:30.196Z,9.89
2023-05-16T02:13:03.637Z,10.05
2023-05-16T02:15:38.334Z,9.83
2023-05-16T02:18:11.579Z,9.96
2023-05-16T02:20:44.824Z,9.78
2023-05-16T02:23:18.462Z,9.82
2023-05-16T02:25:51.616Z,9.73
2023-05-16T02:28:24.963Z,9.76
2023-05-16T02:31:00.313Z,9.21
2023-05-16T02:33:33.568Z,9.37
2023-05-16T02:36:06.940Z,9.35
2023-05-16T02:38:40.249Z,9.22
2023-05-16T02:41:13.687Z,9.18
2023-05-16T02:43:47.245Z,9.19
2023-05-16T02:46:27.671Z,9.31
2023-05-16T02:49:01.719Z,9.42
2023-05-16T02:51:34.940Z,9.46
2023-05-16T02:54:10.058Z,9.37
2023-05-16T02:56:43.168Z,9.43
2023-05-16T02:59:16.544Z,9.61
2023-05-16T03:01:51.616Z,9.43
2023-05-16T03:04:24.862Z,9.48
2023-05-16T03:06:58.328Z,9.21
2023-05-16T03:09:34.480Z,9.48
2023-05-16T03:12:10.931Z,9.69
2023-05-16T03:14:44.406Z,9.28
2023-05-16T03:17:19.069Z,9.30
2023-05-16T03:19:52.969Z,9.29
2023-05-16T03:22:26.202Z,9.68
2023-05-16T03:24:59.421Z,9.33
2023-05-16T03:27:37.252Z,9.31
2023-05-16T03:30:11.252Z,9.29
2023-05-16T03:32:46.872Z,9.56
2023-05-16T03:35:22.677Z,9.76
2023-05-16T03:37:56.476Z,9.84
2023-05-16T03:40:30.122Z,10.00
2023-05-16T03:43:06.028Z,10.07
2023-05-16T03:45:39.356Z,10.05
2023-05-16T03:48:27.038Z,10.19
2023-05-16T03:51:04.321Z,9.98
2023-05-16T03:53:39.333Z,10.22
2023-05-16T03:56:14.935Z,10.26
2023-05-16T03:58:48.107Z,10.38
2023-05-16T04:01:21.285Z,10.29
2023-05-16T04:03:58.330Z,10.41
2023-05-16T04:06:36.602Z,10.38
2023-05-16T04:09:10.410Z,10.32
2023-05-16T04:11:50.031Z,10.41
2023-05-16T04:14:23.546Z,10.27
2023-05-16T04:16:56.934Z,10.54
2023-05-16T04:19:31.513Z,10.47
2023-05-16T04:22:04.811Z,10.46
2023-05-16T04:24:37.912Z,10.35
2023-05-16T04:27:11.160Z,10.56
2023-05-16T04:29:45.420Z,10.51
2023-05-16T04:32:18.619Z,10.31
2023-05-16T04:34:54.386Z,10.41
2023-05-16T04:37:27.783Z,10.62
2023-05-16T04:40:01.000Z,10.69
2023-05-16T04:42:35.012Z,10.69
2023-05-16T04:46:18.495Z,10.82
2023-05-16T04:56:44.074Z,11.26
2023-05-16T04:59:45.328Z,11.10
2023-05-16T05:02:28.304Z,11.00
2023-05-16T05:05:02.590Z,10.98
2023-05-16T05:07:35.702Z,10.73
2023-05-16T05:10:09.460Z,10.91
2023-05-16T05:12:44.082Z,10.98
2023-05-16T05:15:17.703Z,11.10
2023-05-16T05:17:50.954Z,11.49
2023-05-16T05:20:24.248Z,11.22
2023-05-16T05:22:57.795Z,11.14
2023-05-16T05:25:36.340Z,11.28
2023-05-16T05:28:12.255Z,11.47
2023-05-16T05:30:46.998Z,11.34
2023-05-16T05:33:20.872Z,11.29
2023-05-16T05:35:54.600Z,11.73
2023-05-16T05:38:27.752Z,11.86
2023-05-16T05:41:03.501Z,11.71
2023-05-16T05:43:38.653Z,11.84
2023-05-16T05:46:11.818Z,11.72
2023-05-16T05:48:44.985Z,11.72
2023-05-16T05:51:18.167Z,11.57
2023-05-16T05:53:52.411Z,11.55
2023-05-16T05:56:28.154Z,11.60
2023-05-16T05:59:02.653Z,11.53
2023-05-16T06:01:35.917Z,11.64
2023-05-16T06:04:10.601Z,11.70
2023-05-16T06:06:45.845Z,11.71
2023-05-16T06:09:19.151Z,11.85
2023-05-16T06:11:55.643Z,11.88
2023-05-16T06:14:30.099Z,11.87
2023-05-16T06:17:03.461Z,12.03
2023-05-16T06:19:36.954Z,12.10
2023-05-16T06:22:10.541Z,12.05
2023-05-16T06:24:43.739Z,12.11
2023-05-16T06:27:17.201Z,12.48
2023-05-16T06:29:51.684Z,12.49
2023-05-16T06:32:25.407Z,12.35
2023-05-16T06:34:58.524Z,12.31
2023-05-16T06:37:31.941Z,12.33
2023-05-16T06:40:05.716Z,12.37
2023-05-16T06:42:40.035Z,12.27
2023-05-16T06:45:15.364Z,12.24
2023-05-16T06:47:48.576Z,12.24
2023-05-16T06:50:21.596Z,12.15
2023-05-16T06:52:55.362Z,12.14
2023-05-16T06:55:28.598Z,11.98
2023-05-16T06:58:01.754Z,12.00
2023-05-16T07:00:36.095Z,11.86
2023-05-16T07:03:09.380Z,12.05
2023-05-16T07:05:43.108Z,12.04
2023-05-16T07:08:16.238Z,12.03
2023-05-16T07:10:49.115Z,12.00
2023-05-16T07:13:22.474Z,12.25
2023-05-16T07:15:56.883Z,11.98
2023-05-16T07:18:30.020Z,12.03
2023-05-16T07:21:03.210Z,11.99
2023-05-16T07:23:36.385Z,12.06
2023-05-16T07:26:09.433Z,12.11
2023-05-16T07:28:43.057Z,12.18
2023-05-16T07:31:18.398Z,12.25
2023-05-16T07:33:51.420Z,12.35
2023-05-16T07:36:24.651Z,12.35
2023-05-16T07:38:57.573Z,12.30
2023-05-16T07:41:30.532Z,12.41
2023-05-16T07:44:03.546Z,12.46
2023-05-16T07:46:38.189Z,12.55
2023-05-16T07:49:11.520Z,12.75
2023-05-16T07:51:44.411Z,13.01
2023-05-16T07:54:17.723Z,12.85
2023-05-16T07:56:51.750Z,12.88
2023-05-16T07:59:25.283Z,12.94
2023-05-16T08:01:59.991Z,13.21
2023-05-16T08:04:32.915Z,13.04
2023-05-16T08:07:06.305Z,13.27
2023-05-16T08:09:39.414Z,13.15
2023-05-16T08:12:13.846Z,12.96
2023-05-16T08:14:46.784Z,12.89
2023-05-16T08:17:21.114Z,12.91
2023-05-16T08:19:54.307Z,12.75
2023-05-16T08:22:27.186Z,12.85
2023-05-16T08:25:00.757Z,12.87
2023-05-16T08:27:33.799Z,12.73
2023-05-16T08:30:08.782Z,12.69
2023-05-16T08:32:43.820Z,12.72
2023-05-16T08:35:17.071Z,12.85
2023-05-16T08:37:50.453Z,12.91
2023-05-16T08:40:26.939Z,12.98
2023-05-16T08:42:59.971Z,13.07
2023-05-16T08:45:33.021Z,13.18
2023-05-16T08:48:10.342Z,13.19
2023-05-16T08:50:44.124Z,13.56
2023-05-16T08:53:24.705Z,13.56
2023-05-16T08:56:00.460Z,13.42
2023-05-16T08:58:33.583Z,13.44
2023-05-16T09:01:09.039Z,13.45
2023-05-16T09:03:44.565Z,13.51
2023-05-16T09:06:17.944Z,13.59
2023-05-16T09:08:50.853Z,13.54
2023-05-16T09:11:24.174Z,13.49
2023-05-16T09:13:57.151Z,13.94
2023-05-16T09:16:30.101Z,13.97
2023-05-16T09:19:04.948Z,13.95
2023-05-16T09:21:38.015Z,14.11
2023-05-16T09:24:11.115Z,14.34
2023-05-16T09:26:46.094Z,14.56
2023-05-16T09:29:19.705Z,14.42
2023-05-16T09:31:52.925Z,14.44
2023-05-16T09:34:27.171Z,14.53
2023-05-16T09:37:00.641Z,14.50
2023-05-16T09:39:33.444Z,14.73
2023-05-16T09:42:06.864Z,14.42
2023-05-16T09:44:39.846Z,14.62
2023-05-16T09:47:15.206Z,14.30
2023-05-16T09:49:53.787Z,13.86
2023-05-16T09:52:28.347Z,13.89
2023-05-16T09:55:05.189Z,13.63
2023-05-16T09:57:40.534Z,13.80
2023-05-16T10:00:14.390Z,13.86
2023-05-16T10:02:47.694Z,13.71
2023-05-16T10:05:22.336Z,13.62
2023-05-16T10:07:57.392Z,13.65
2023-05-16T10:10:31.669Z,13.70
2023-05-16T10:13:08.605Z,13.84
2023-05-16T10:15:42.577Z,13.80
2023-05-16T10:18:18.599Z,13.77
2023-05-16T10:20:56.360Z,13.84
2023-05-16T10:23:29.670Z,13.69
2023-05-16T10:26:07.362Z,13.73
2023-05-16T10:28:41.821Z,13.76
2023-05-16T10:31:15.705Z,13.85
2023-05-16T10:33:48.889Z,14.00
2023-05-16T10:36:23.949Z,13.84
2023-05-16T10:38:57.747Z,13.62
2023-05-16T10:41:31.143Z,13.85
2023-05-16T10:44:05.139Z,13.92
2023-05-16T10:46:39.859Z,14.07
2023-05-16T10:49:23.895Z,13.84
2023-05-16T10:52:09.649Z,13.85
2023-05-16T10:54:44.245Z,13.97
2023-05-16T10:57:20.879Z,14.15
2023-05-16T10:59:54.055Z,13.96
2023-05-16T11:02:29.551Z,14.45
2023-05-16T11:05:03.898Z,14.26
2023-05-16T11:07:38.641Z,14.19
2023-05-16T11:10:16.124Z,14.03
2023-05-16T11:12:50.989Z,14.29
2023-05-16T11:15:29.024Z,14.48
2023-05-16T11:18:11.115Z,14.55
2023-05-16T11:20:44.293Z,14.68
2023-05-16T11:23:26.425Z,14.52
2023-05-16T11:26:01.410Z,14.66
2023-05-16T11:28:34.348Z,14.38
2023-05-16T11:31:08.648Z,14.34
2023-05-16T11:33:42.028Z,14.52
2023-05-16T11:36:16.611Z,14.74
2023-05-16T11:38:51.115Z,14.71
2023-05-16T11:41:24.366Z,14.54
2023-05-16T11:43:57.191Z,14.74
2023-05-16T11:46:30.173Z,14.49
2023-05-16T11:49:04.768Z,14.38
2023-05-16T11:51:39.297Z,14.49
2023-05-16T11:54:14.666Z,14.64
2023-05-16T11:56:48.080Z,14.56
2023-05-16T11:59:21.719Z,14.30
2023-05-16T12:01:54.545Z,14.10
2023-05-16T12:04:27.522Z,14.51
2023-05-16T12:07:02.612Z,14.52
2023-05-16T12:09:36.959Z,14.68
2023-05-16T12:12:11.179Z,14.79
2023-05-16T12:14:45.301Z,14.30
2023-05-16T12:17:18.704Z,14.60
2023-05-16T12:19:52.353Z,14.39
2023-05-16T12:22:27.028Z,14.26
2023-05-16T12:25:01.875Z,14.22
2023-05-16T12:27:35.233Z,14.17
2023-05-16T12:30:10.913Z,14.18
2023-05-16T12:32:44.164Z,14.05
2023-05-16T12:35:19.701Z,13.85
2023-05-16T12:37:53.836Z,13.88
2023-05-16T12:40:42.063Z,14.11
2023-05-16T12:43:35.851Z,14.14
2023-05-16T12:46:26.704Z,14.14
2023-05-16T12:49:47.328Z,13.90
2023-05-16T12:53:02.687Z,13.98
2023-05-16T12:56:03.751Z,13.91
2023-05-16T12:58:57.580Z,13.62
2023-05-16T13:04:26.086Z,14.11
2023-05-16T13:07:26.407Z,14.12
2023-05-16T13:10:42.725Z,14.17
2023-05-16T13:14:22.477Z,14.39
2023-05-16T13:18:10.296Z,14.74
2023-05-16T13:21:44.608Z,14.66
2023-05-16T13:25:04.014Z,15.01
2023-05-16T13:28:06.958Z,15.38
2023-05-16T13:31:11.007Z,15.76
2023-05-16T13:34:45.945Z,15.45
2023-05-16T13:37:19.016Z,15.23
2023-05-16T13:39:54.693Z,15.47
2023-05-16T13:42:27.593Z,15.75
2023-05-16T13:45:00.479Z,15.65
2023-05-16T13:47:33.835Z,15.81
2023-05-16T13:50:10.316Z,15.95
2023-05-16T13:52:43.991Z,15.63
2023-05-16T13:55:18.821Z,15.28
2023-05-16T13:57:51.890Z,15.98
2023-05-16T14:00:42.543Z,16.45
2023-05-16T14:03:16.868Z,16.13
2023-05-16T14:05:50.209Z,16.19
2023-05-16T14:08:25.584Z,15.97
2023-05-16T14:11:00.579Z,15.90
2023-05-16T14:13:33.561Z,15.93
2023-05-16T14:16:07.435Z,15.91
2023-05-16T14:18:40.684Z,15.64
2023-05-16T14:21:14.009Z,15.58
2023-05-16T14:23:47.174Z,15.23
2023-05-16T14:26:25.197Z,15.64
2023-05-16T14:28:58.060Z,15.66
2023-05-16T14:31:31.064Z,15.54
2023-05-16T14:34:04.192Z,15.36
2023-05-16T14:36:37.166Z,15.05
2023-05-16T14:39:10.360Z,14.82
2023-05-16T14:41:44.643Z,14.81
2023-05-16T14:44:17.723Z,14.87
2023-05-16T14:46:50.628Z,14.85
2023-05-16T14:49:23.755Z,15.02
2023-05-16T14:51:56.756Z,14.76
2023-05-16T14:54:29.556Z,15.03
2023-05-16T14:57:05.017Z,15.04
2023-05-16T14:59:38.030Z,15.09
2023-05-16T15:02:10.904Z,15.24
2023-05-16T15:04:44.009Z,15.19
2023-05-16T15:07:17.070Z,14.84
2023-05-16T15:09:49.947Z,15.03
2023-05-16T15:12:24.781Z,15.00
2023-05-16T15:14:57.560Z,14.82
2023-05-16T15:17:30.399Z,14.86
2023-05-16T15:20:04.014Z,14.88
2023-05-16T15:22:37.169Z,14.67
2023-05-16T15:25:10.799Z,14.65
2023-05-16T15:27:45.505Z,14.96
2023-05-16T15:30:18.397Z,14.70
2023-05-16T15:32:51.691Z,14.91
2023-05-16T15:35:24.559Z,14.95
2023-05-16T15:37:59.809Z,14.96
2023-05-16T15:40:32.779Z,14.82
2023-05-16T15:43:07.118Z,14.87
2023-05-16T15:45:47.134Z,14.99
2023-05-16T15:48:20.567Z,15.09
2023-05-16T15:50:53.434Z,14.86
2023-05-16T15:53:26.433Z,14.90
2023-05-16T15:55:59.314Z,14.93
2023-05-16T15:58:33.496Z,15.05
2023-05-16T16:01:06.324Z,14.80
2023-05-16T16:03:39.310Z,14.99
2023-05-16T16:06:12.286Z,14.78
2023-05-16T16:08:45.190Z,14.87
2023-05-16T16:11:18.041Z,14.89
2023-05-16T16:13:52.483Z,14.89
2023-05-16T16:16:25.391Z,14.83
2023-05-16T16:18:58.480Z,15.09
2023-05-16T16:21:31.443Z,15.20
2023-05-16T16:24:04.901Z,15.39
2023-05-16T16:26:37.946Z,15.53
2023-05-16T16:29:14.554Z,15.58
2023-05-16T16:31:50.286Z,15.33
2023-05-16T16:34:23.533Z,15.54
2023-05-16T16:36:56.473Z,15.40
2023-05-16T16:39:32.754Z,15.46
2023-05-16T16:42:08.292Z,15.26
2023-05-16T16:44:43.191Z,15.17
2023-05-16T16:47:24.893Z,14.67
2023-05-16T16:49:58.279Z,14.45
2023-05-16T16:52:33.653Z,14.56
2023-05-16T16:55:17.296Z,14.64
2023-05-16T16:57:58.291Z,14.52
2023-05-16T17:00:33.105Z,14.40
2023-05-16T17:03:06.490Z,14.30
2023-05-16T17:05:39.444Z,14.33
2023-05-16T17:08:12.538Z,14.31
2023-05-16T17:10:45.439Z,14.45
2023-05-16T17:13:18.657Z,14.33
2023-05-16T17:15:52.883Z,14.35
2023-05-16T17:18:25.735Z,14.16
2023-05-16T17:20:58.708Z,14.13
2023-05-16T17:23:32.784Z,14.03
2023-05-16T17:26:05.609Z,14.34
2023-05-16T17:28:38.491Z,14.01
2023-05-16T17:31:12.747Z,13.98
2023-05-16T17:33:45.599Z,13.68
2023-05-16T17:36:18.464Z,13.85
2023-05-16T17:38:51.375Z,13.88
2023-05-16T17:41:24.365Z,13.76
2023-05-16T17:43:57.283Z,13.53
2023-05-16T17:46:31.711Z,13.76
2023-05-16T17:49:04.704Z,13.29
2023-05-16T17:51:48.516Z,13.46
2023-05-16T17:54:22.654Z,13.36
2023-05-16T17:56:56.056Z,13.21
2023-05-16T17:59:30.097Z,13.41
2023-05-16T18:02:04.628Z,13.24
2023-05-16T18:04:38.234Z,13.40
2023-05-16T18:07:11.530Z,13.32
2023-05-16T18:09:45.379Z,13.45
2023-05-16T18:12:38.753Z,12.89
2023-05-16T18:15:23.704Z,13.10
2023-05-16T18:17:58.348Z,12.84
2023-05-16T18:20:31.689Z,12.95
2023-05-16T18:23:04.990Z,12.88
2023-05-16T18:25:38.045Z,12.62
2023-05-16T18:28:21.594Z,12.49
2023-05-16T18:31:04.865Z,12.33
2023-05-16T18:33:55.342Z,12.12
2023-05-16T18:36:28.731Z,12.09
2023-05-16T18:39:01.524Z,11.87
2023-05-16T18:41:34.550Z,11.71
2023-05-16T18:44:07.807Z,11.56
2023-05-16T18:46:40.577Z,11.46
2023-05-16T18:49:15.152Z,11.19
2023-05-16T18:51:48.051Z,11.21
2023-05-16T18:54:22.584Z,11.21
2023-05-16T18:56:56.173Z,11.27
2023-05-16T18:59:29.258Z,11.15
2023-05-16T19:02:02.271Z,11.05
2023-05-16T19:04:36.747Z,11.03
2023-05-16T19:07:09.896Z,11.05
2023-05-16T19:09:43.178Z,10.88
2023-05-16T19:12:16.252Z,10.51
2023-05-16T19:14:49.486Z,10.65
2023-05-16T19:17:22.596Z,10.60
2023-05-16T19:19:56.849Z,10.76
2023-05-16T19:22:29.982Z,10.67
2023-05-16T19:25:03.306Z,10.58
2023-05-16T19:27:36.682Z,10.61
2023-05-16T19:30:10.604Z,10.45
2023-05-16T19:32:43.517Z,10.40
2023-05-16T19:35:18.439Z,10.31
2023-05-16T19:37:51.372Z,10.25
2023-05-16T19:40:24.302Z,10.08
2023-05-16T19:42:57.163Z,10.07
2023-05-16T19:45:30.275Z,9.87
2023-05-16T19:48:03.739Z,9.90
2023-05-16T19:50:38.210Z,9.78
2023-05-16T19:53:11.098Z,9.75
2023-05-16T19:55:44.037Z,9.58
2023-05-16T19:58:16.995Z,9.63
2023-05-16T20:00:50.892Z,9.59
2023-05-16T20:03:23.998Z,9.44
2023-05-16T20:05:58.822Z,9.35
2023-05-16T20:08:31.968Z,9.16
2023-05-16T20:11:05.747Z,9.09
2023-05-16T20:13:39.057Z,9.15
2023-05-16T20:16:12.455Z,9.06
2023-05-16T20:18:46.944Z,8.89
2023-05-16T20:21:24.076Z,8.89
2023-05-16T20:23:56.945Z,9.00
2023-05-16T20:26:30.117Z,8.86
2023-05-16T20:29:03.743Z,9.08
2023-05-16T20:31:36.725Z,9.12
2023-05-16T20:34:09.670Z,8.97
2023-05-16T20:36:44.034Z,8.91
2023-05-16T20:39:16.951Z,8.53
2023-05-16T20:41:49.806Z,8.69
2023-05-16T20:44:22.705Z,8.59
2023-05-16T20:46:56.302Z,8.58
2023-05-16T20:49:29.412Z,8.61
2023-05-16T20:52:03.703Z,8.55
2023-05-16T20:54:36.594Z,8.46
2023-05-16T20:57:09.507Z,8.45
2023-05-16T20:59:43.028Z,8.37
2023-05-16T21:02:16.325Z,8.31
2023-05-16T21:04:49.139Z,8.36
2023-05-16T21:07:25.468Z,8.36
2023-05-16T21:09:58.737Z,8.25
2023-05-16T21:12:33.069Z,8.21
2023-05-16T21:15:07.564Z,8.20
2023-05-16T21:17:42.269Z,8.19
2023-05-16T21:20:16.024Z,8.25
2023-05-16T21:22:50.667Z,8.20
2023-05-16T21:25:25.502Z,8.22
2023-05-16T21:28:00.219Z,8.31
2023-05-16T21:30:34.091Z,8.30
2023-05-16T21:33:12.121Z,8.19
2023-05-16T21:35:45.911Z,8.04
2023-05-16T21:38:21.473Z,8.11
2023-05-16T21:40:54.750Z,8.22
2023-05-16T21:43:28.952Z,8.10
2023-05-16T21:46:02.182Z,8.07
2023-05-16T21:48:39.774Z,7.97
2023-05-16T21:51:14.084Z,8.05
2023-05-16T21:53:48.667Z,8.04
2023-05-16T21:56:22.200Z,7.93
2023-05-16T21:58:58.986Z,7.92
2023-05-16T22:01:33.209Z,7.88
2023-05-16T22:04:07.004Z,7.96
2023-05-16T22:06:40.710Z,7.82
2023-05-16T22:09:16.081Z,7.87
2023-05-16T22:11:50.676Z,7.63
2023-05-16T22:14:24.000Z,7.57
2023-05-16T22:16:58.444Z,7.53
2023-05-16T22:19:31.987Z,7.44
2023-05-16T22:22:07.912Z,7.41
2023-05-16T22:24:42.574Z,7.32
2023-05-16T22:27:15.896Z,7.28
2023-05-16T22:29:49.921Z,7.26
2023-05-16T22:32:27.990Z,7.13
2023-05-16T22:35:01.398Z,7.17
2023-05-16T22:37:35.073Z,7.28
2023-05-16T22:40:14.838Z,7.26
2023-05-16T22:42:47.968Z,7.07
2023-05-16T22:45:25.858Z,7.08
2023-05-16T22:47:59.766Z,7.14
2023-05-16T22:50:33.149Z,7.18
2023-05-16T22:53:06.271Z,7.21
2023-05-16T22:55:42.112Z,7.01
2023-05-16T22:58:15.132Z,6.97
2023-05-16T23:00:51.384Z,6.66
2023-05-16T23:03:28.203Z,6.69
2023-05-16T23:06:01.826Z,6.73
2023-05-16T23:08:36.067Z,6.72
2023-05-16T23:11:12.199Z,6.63
2023-05-16T23:13:45.943Z,6.60
2023-05-16T23:16:19.177Z,6.36
2023-05-16T23:18:53.948Z,6.46
2023-05-16T23:21:29.252Z,6.22
2023-05-16T23:24:02.350Z,6.25
2023-05-16T23:26:40.851Z,5.83
2023-05-16T23:29:15.468Z,5.86
2023-05-16T23:31:49.508Z,5.68
2023-05-16T23:34:22.680Z,5.75
2023-05-16T23:36:55.615Z,5.55
2023-05-16T23:39:30.028Z,5.63
2023-05-16T23:42:05.145Z,5.61
2023-05-16T23:44:40.340Z,5.53
2023-05-16T23:47:13.318Z,5.74
2023-05-16T23:49:46.204Z,5.59
2023-05-16T23:52:19.832Z,5.77
2023-05-16T23:54:54.070Z,5.70
2023-05-16T23:57:28.722Z,5.75
